Time;durP1;ratioP1;P1;durP2;ratioP2;P2;SDS_P1;SDS_P2;PMS_P1;PMS_P2;Temp;Humidity;BMP_temperature;BMP_pressure;BME280_temperature;BME280_humidity;BME280_pressure;Samples;Min_cycle;Max_cycle;Signal;HPM_P1;HPM_P2
2022/03/14 00:02:17;;;;;;;;;3.00;2.00;;;;;12.01;100.00;101422.72;6205836;22;45837;-94
2022/03/14 00:04:48;;;;;;;;;6.00;2.33;;;;;12.13;100.00;101432.06;6245331;22;45662;-94
2022/03/14 00:07:41;;;;;;;;;3.33;1.00;;;;;12.22;100.00;101453.63;6246290;22;45259;-94
2022/03/14 00:10:14;;;;;;;;;4.33;2.33;;;;;12.20;100.00;101457.91;6371856;22;45401;-93
2022/03/14 00:12:48;;;;;;;;;1.67;1.67;;;;;12.13;100.00;101453.13;6464134;22;45768;-94
2022/03/14 00:15:19;;;;;;;;;2.00;2.00;;;;;12.25;100.00;101468.66;6437206;22;45424;-95
2022/03/14 00:18:10;;;;;;;;;2.33;1.33;;;;;12.27;100.00;101454.75;6437849;22;45460;-95
2022/03/14 00:24:00;;;;;;;;;1.00;1.00;;;;;12.09;100.00;101464.31;6281433;22;45642;-93
2022/03/14 00:26:39;;;;;;;;;;;;;;;;;;;;;
2022/03/14 00:29:20;;;;;;;;;;;;;;;;;;;;;
2022/03/14 00:32:01;;;;;;;;;2.67;1.00;;;;;12.25;100.00;101489.72;6302961;22;73674;-93
2022/03/14 00:38:07;;;;;;;;;;;;;;;;;;;;;
2022/03/14 00:57:23;;;;;;;;;1.67;1.67;;;;;12.34;100.00;101545.47;6334351;22;45420;-95
2022/03/14 01:03:44;;;;;;;;;;;;;;;;;;;;;
2022/03/14 01:06:30;;;;;;;;;1.00;1.00;;;;;12.34;100.00;101563.00;6270334;22;75701;-96
2022/03/14 01:09:14;;;;;;;;;1.00;1.00;;;;;12.52;100.00;101584.09;6244017;22;45270;-95
2022/03/14 01:11:47;;;;;;;;;1.00;1.00;;;;;12.55;100.00;101597.41;6272404;22;45366;-96
2022/03/14 01:17:37;;;;;;;;;1.33;1.00;;;;;12.46;100.00;101581.13;6271458;22;46633;-95
2022/03/14 01:20:03;;;;;;;;;1.00;1.00;;;;;12.46;100.00;101602.22;6270964;22;45390;-95
2022/03/14 01:23:27;;;;;;;;;;;;;;;;;;;;;
2022/03/14 01:25:27;;;;;;;;;2.00;2.00;;;;;12.45;100.00;101619.72;6261151;22;45438;-95
2022/03/14 01:28:15;;;;;;;;;2.00;1.00;;;;;12.51;100.00;101599.00;6271438;22;47699;-94
2022/03/14 01:30:49;;;;;;;;;2.00;2.00;;;;;12.61;100.00;101617.88;6213715;22;45362;-96
2022/03/14 01:33:34;;;;;;;;;1.33;1.00;;;;;12.63;100.00;101626.75;6238496;22;44770;-96
2022/03/14 01:36:18;;;;;;;;;1.00;1.00;;;;;12.56;100.00;101608.84;6181074;22;44865;-95
2022/03/14 01:40:09;;;;;;;;;;;;;;;;;;;;;
2022/03/14 01:42:47;;;;;;;;;6.00;3.33;;;;;12.60;100.00;101626.63;6266863;22;45196;-96
2022/03/14 01:45:22;;;;;;;;;1.33;1.00;;;;;12.59;100.00;101631.00;6245888;22;45584;-95
2022/03/14 01:48:37;;;;;;;;;2.67;2.33;;;;;12.62;100.00;101636.41;6246388;22;45557;-96
2022/03/14 01:51:50;;;;;;;;;;;;;;;;;;;;;
2022/03/14 01:58:26;;;;;;;;;;;;;;;;;;;;;
2022/03/14 02:01:29;;;;;;;;;;;;;;;;;;;;;
2022/03/14 02:04:18;;;;;;;;;1.33;1.00;;;;;12.47;100.00;101640.91;6032074;23;75129;-95
2022/03/14 02:07:00;;;;;;;;;2.00;2.00;;;;;12.54;100.00;101660.53;6054945;23;45262;-96
2022/03/14 02:10:16;;;;;;;;;2.00;2.00;;;;;12.35;100.00;101641.13;6089631;23;45376;-96
2022/03/14 02:13:09;;;;;;;;;1.00;1.00;;;;;12.32;100.00;101646.25;6108880;23;45322;-96
2022/03/14 02:15:48;;;;;;;;;;;;;;;;;;;;;
2022/03/14 02:18:32;;;;;;;;;2.00;2.00;;;;;12.25;100.00;101653.81;6126002;23;72640;-95
2022/03/14 02:24:21;;;;;;;;;4.00;1.00;;;;;12.14;100.00;101665.50;6124962;23;45581;-94
2022/03/14 02:30:30;;;;;;;;;;;;;;;;;;;;;
2022/03/14 02:33:17;;;;;;;;;;;;;;;;;;;;;
2022/03/14 02:36:06;;;;;;;;;1.33;1.00;;;;;12.01;100.00;101651.63;6362200;22;69084;-96
2022/03/14 02:38:47;;;;;;;;;;;;;;;;;;;;;
2022/03/14 02:41:18;;;;;;;;;1.00;1.00;;;;;11.91;100.00;101660.75;6371476;22;72174;-95
2022/03/14 02:44:06;;;;;;;;;3.00;1.00;;;;;11.78;100.00;101653.00;6371908;22;45275;-96
2022/03/14 02:47:25;;;;;;;;;;;;;;;;;;;;;
2022/03/14 02:50:44;;;;;;;;;;;;;;;;;;;;;
2022/03/14 02:53:24;;;;;;;;;;;;;;;;;;;;;
2022/03/14 02:56:36;;;;;;;;;;;;;;;;;;;;;
2022/03/14 02:59:12;;;;;;;;;2.00;2.00;;;;;11.69;100.00;101685.91;6290919;22;70398;-96
2022/03/14 03:02:11;;;;;;;;;;;;;;;;;;;;;
2022/03/14 03:43:45;;;;;;;;;2.00;2.00;;;;;11.50;100.00;101778.59;5836534;24;47726;-95
2022/03/14 03:46:44;;;;;;;;;3.67;2.33;;;;;11.55;100.00;101802.53;5815008;24;45388;-94
2022/03/14 03:49:37;;;;;;;;;2.00;2.00;;;;;11.57;100.00;101807.06;5836805;24;45455;-94
2022/03/14 03:52:26;;;;;;;;;2.00;1.67;;;;;11.47;100.00;101795.09;5861676;24;45326;-94
2022/03/14 03:55:12;;;;;;;;;1.00;1.00;;;;;11.52;100.00;101805.88;5933901;23;46790;-94
2022/03/14 03:57:50;;;;;;;;;3.00;1.67;;;;;11.40;100.00;101785.94;6060316;23;45587;-95
2022/03/14 04:00:52;;;;;;;;;1.00;1.00;;;;;11.50;100.00;101812.78;6128844;23;45330;-93
2022/03/14 04:04:13;;;;;;;;;;;;;;;;;;;;;
2022/03/14 04:13:43;;;;;;;;;1.00;1.00;;;;;11.44;100.00;101836.09;6117027;23;45434;-94
2022/03/14 04:17:24;;;;;;;;;2.00;2.00;;;;;11.44;100.00;101833.47;6140006;23;45400;-95
2022/03/14 04:23:05;;;;;;;;;8.00;4.67;;;;;11.30;100.00;101836.16;6088633;23;45442;-94
2022/03/14 04:27:03;;;;;;;;;;;;;;;;;;;;;
2022/03/14 04:29:49;;;;;;;;;;;;;;;;;;;;;
2022/03/14 04:32:29;;;;;;;;;4.33;3.00;;;;;11.40;100.00;101867.44;6028257;23;74169;-95
2022/03/14 04:35:39;;;;;;;;;5.00;1.67;;;;;11.32;100.00;101852.00;6005439;23;45470;-95
2022/03/14 04:39:03;;;;;;;;;;;;;;;;;;;;;
2022/03/14 04:42:02;;;;;;;;;;;;;;;;;;;;;
2022/03/14 04:48:21;;;;;;;;;;;;;;;;;;;;;
2022/03/14 04:51:12;;;;;;;;;3.33;3.33;;;;;11.24;100.00;101872.56;5934695;23;45395;-95
2022/03/14 04:57:40;;;;;;;;;;;;;;;;;;;;;
2022/03/14 05:22:02;;;;;;;;;;;;;;;;;;;;;
2022/03/14 05:29:18;;;;;;;;;;;;;;;;;;;;;
2022/03/14 05:36:01;;;;;;;;;;;;;;;;;;;;;
2022/03/14 05:49:49;;;;;;;;;;;;;;;;;;;;;
2022/03/14 05:52:33;;;;;;;;;;;;;;;;;;;;;
2022/03/14 05:55:14;;;;;;;;;9.67;7.33;;;;;10.57;100.00;101969.16;5837053;24;45460;-95
2022/03/14 05:58:21;;;;;;;;;;;;;;;;;;;;;
2022/03/14 06:01:39;;;;;;;;;2.33;2.33;;;;;10.69;100.00;101984.81;5919624;24;69413;-94
2022/03/14 06:11:04;;;;;;;;;;;;;;;;;;;;;
2022/03/14 06:13:58;;;;;;;;;5.67;3.33;;;;;10.47;100.00;101979.03;5946264;23;68685;-94
2022/03/14 06:16:52;;;;;;;;;3.00;2.67;;;;;10.49;100.00;101984.38;6003889;23;47776;-94
2022/03/14 06:19:28;;;;;;;;;2.67;2.67;;;;;10.47;100.00;102000.03;6070208;23;45487;-96
2022/03/14 06:22:37;;;;;;;;;6.67;3.00;;;;;10.61;100.00;102014.13;6164086;22;45406;-95
2022/03/14 06:29:02;;;;;;;;;7.00;6.00;;;;;10.44;100.00;101999.81;6250515;22;45902;-95
2022/03/14 06:35:35;;;;;;;;;6.00;6.00;;;;;10.53;100.00;102022.28;6209285;22;45557;-96
2022/03/14 06:50:23;;;;;;;;;;;;;;;;;;;;;
2022/03/14 07:16:59;;;;;;;;;6.00;4.33;;;;;11.51;100.00;102101.22;6163701;22;4265896;-95
2022/03/14 07:19:25;;;;;;;;;7.33;6.00;;;;;11.61;100.00;102118.47;6374756;22;45157;-94
2022/03/14 07:21:50;;;;;;;;;6.33;5.33;;;;;11.59;100.00;102099.97;6375188;22;45349;-95
2022/03/14 07:24:16;;;;;;;;;6.33;5.00;;;;;11.70;100.00;102112.91;6348979;22;45340;-93
2022/03/14 07:26:41;;;;;;;;;8.33;8.00;;;;;11.79;100.00;102131.88;6373349;22;45274;-92
2022/03/14 07:29:06;;;;;;;;;6.33;6.33;;;;;11.83;100.00;102130.34;6371754;22;45550;-90
2022/03/14 07:31:32;;;;;;;;;7.00;5.00;;;;;11.91;100.00;102125.56;6371941;22;45322;-93
2022/03/14 07:33:57;;;;;;;;;9.33;5.00;;;;;12.03;100.00;102144.75;6371529;22;45277;-91
2022/03/14 07:36:23;;;;;;;;;7.00;6.00;;;;;12.04;100.00;102141.28;6373467;22;46273;-93
2022/03/14 07:38:48;;;;;;;;;7.00;3.00;;;;;12.12;100.00;102146.13;6372152;22;45283;-93
2022/03/14 07:41:13;;;;;;;;;6.67;6.33;;;;;12.12;100.00;102156.66;6372903;22;45354;-92
2022/03/14 07:43:40;;;;;;;;;10.67;8.67;;;;;12.12;100.00;102159.28;6371107;22;45486;-92
2022/03/14 07:46:05;;;;;;;;;7.00;6.67;;;;;12.13;100.00;102169.00;6374025;22;45542;-92
2022/03/14 07:48:31;;;;;;;;;6.00;6.00;;;;;12.10;100.00;102172.34;6371348;22;45325;-92
2022/03/14 07:50:56;;;;;;;;;7.00;6.00;;;;;12.12;100.00;102177.69;6371700;22;45401;-92
2022/03/14 07:53:22;;;;;;;;;8.67;5.67;;;;;12.15;100.00;102184.13;6374392;22;45589;-92
2022/03/14 07:55:48;;;;;;;;;11.00;7.67;;;;;12.16;100.00;102188.53;6372113;22;47030;-93
2022/03/14 07:58:13;;;;;;;;;9.00;5.33;;;;;12.24;100.00;102196.91;6371703;22;45396;-94
2022/03/14 08:00:39;;;;;;;;;10.00;7.00;;;;;12.37;100.00;102192.44;6375317;22;45392;-93
2022/03/14 08:03:04;;;;;;;;;7.00;7.00;;;;;12.49;100.00;102194.91;6372583;22;45254;-89
2022/03/14 08:05:30;;;;;;;;;9.00;5.33;;;;;12.60;100.00;102193.81;6370957;22;45647;-93
2022/03/14 08:07:55;;;;;;;;;8.00;8.00;;;;;12.74;100.00;102197.28;6371851;22;45335;-92
2022/03/14 08:10:22;;;;;;;;;8.00;8.00;;;;;12.84;100.00;102188.19;6369705;22;45369;-92
2022/03/14 08:12:49;;;;;;;;;7.67;6.00;;;;;12.96;100.00;102210.84;6370886;22;45933;-92
2022/03/14 08:15:32;;;;;;;;;8.67;8.67;;;;;13.13;100.00;102213.53;6371516;22;47254;-93
2022/03/14 08:17:59;;;;;;;;;7.67;7.00;;;;;13.17;100.00;102219.09;6363684;22;45327;-92
2022/03/14 08:20:26;;;;;;;;;8.33;8.00;;;;;13.21;100.00;102224.53;6363335;22;45359;-93
2022/03/14 08:22:53;;;;;;;;;6.67;6.67;;;;;13.25;100.00;102234.44;6365237;22;45719;-92
2022/03/14 08:25:19;;;;;;;;;8.33;7.33;;;;;13.32;100.00;102239.28;6365536;22;45425;-93
2022/03/14 08:27:46;;;;;;;;;12.67;9.33;;;;;13.39;100.00;102233.53;6365412;22;45762;-92
2022/03/14 08:30:11;;;;;;;;;8.33;7.33;;;;;13.47;100.00;102238.34;6366478;22;45172;-93
2022/03/14 08:32:39;;;;;;;;;6.33;6.33;;;;;13.54;100.00;102232.59;6366844;22;45268;-92
2022/03/14 08:35:09;;;;;;;;;9.00;6.00;;;;;13.57;100.00;102237.16;6361341;22;47260;-93
2022/03/14 08:37:35;;;;;;;;;8.00;8.00;;;;;13.65;100.00;102242.88;6359750;22;45368;-93
2022/03/14 08:40:01;;;;;;;;;6.00;4.33;;;;;13.71;100.00;102246.75;6362759;22;45305;-92
2022/03/14 08:42:26;;;;;;;;;6.67;6.33;;;;;13.78;100.00;102248.03;6336309;22;45427;-89
2022/03/14 08:44:51;;;;;;;;;8.67;5.33;;;;;13.84;100.00;102251.00;6361922;22;70358;-94
2022/03/14 08:47:17;;;;;;;;;6.00;6.00;;;;;13.92;100.00;102253.16;6364732;22;49270;-93
2022/03/14 08:49:42;;;;;;;;;4.00;4.00;;;;;13.99;100.00;102259.72;6366050;22;45470;-92
2022/03/14 08:52:07;;;;;;;;;12.00;8.67;;;;;14.09;100.00;102272.59;6363869;22;49295;-94
2022/03/14 08:54:34;;;;;;;;;9.67;7.33;;;;;14.13;100.00;102274.56;6364274;22;47122;-93
2022/03/14 08:56:59;;;;;;;;;12.67;7.33;;;;;14.21;100.00;102274.09;6363802;22;45316;-93
2022/03/14 08:59:24;;;;;;;;;8.00;7.00;;;;;14.26;100.00;102272.59;6362416;22;45261;-93
2022/03/14 09:01:50;;;;;;;;;9.00;4.67;;;;;14.34;100.00;102281.88;6366304;22;45259;-93
2022/03/14 09:04:16;;;;;;;;;8.00;6.67;;;;;14.44;100.00;102274.44;6362584;22;45174;-94
2022/03/14 09:06:43;;;;;;;;;6.00;6.00;;;;;14.48;100.00;102284.34;6363400;22;45398;-93
2022/03/14 09:09:08;;;;;;;;;9.33;8.33;;;;;14.55;100.00;102288.22;6364716;22;45375;-94
2022/03/14 09:11:34;;;;;;;;;13.67;8.67;;;;;14.61;100.00;102292.09;6362496;22;45340;-93
2022/03/14 09:13:59;;;;;;;;;9.00;9.00;;;;;14.68;100.00;102289.78;6363469;22;47938;-93
2022/03/14 09:16:25;;;;;;;;;7.00;7.00;;;;;14.73;100.00;102294.50;6366255;22;45401;-93
2022/03/14 09:18:52;;;;;;;;;9.67;9.67;;;;;14.86;100.00;102300.47;6362837;22;45376;-94
2022/03/14 09:21:18;;;;;;;;;10.00;8.33;;;;;14.88;100.00;102285.59;6362403;22;45314;-94
2022/03/14 09:23:43;;;;;;;;;11.67;9.33;;;;;14.94;100.00;102295.59;6362439;22;47341;-93
2022/03/14 09:26:09;;;;;;;;;9.00;9.00;;;;;15.06;100.00;102292.66;6362462;22;45424;-93
2022/03/14 09:28:36;;;;;;;;;8.33;7.00;;;;;15.14;100.00;102296.63;6361691;22;45297;-94
2022/03/14 09:31:02;;;;;;;;;12.33;7.00;;;;;15.21;100.00;102300.47;6362774;22;45392;-94
2022/03/14 09:33:28;;;;;;;;;8.67;6.67;;;;;15.29;100.00;102298.22;6365066;22;45405;-93
2022/03/14 09:35:53;;;;;;;;;8.33;6.00;;;;;15.43;100.00;102298.94;6364751;22;45396;-94
2022/03/14 09:38:19;;;;;;;;;8.33;7.33;;;;;15.51;100.00;102304.59;6365544;22;46003;-94
2022/03/14 09:40:46;;;;;;;;;9.00;7.67;;;;;15.58;100.00;102300.50;6365577;22;45273;-94
2022/03/14 09:43:16;;;;;;;;;14.33;8.33;;;;;15.68;100.00;102301.88;6361960;22;48170;-93
2022/03/14 09:45:45;;;;;;;;;6.33;6.33;;;;;15.75;100.00;102311.94;6365289;22;45370;-94
2022/03/14 09:48:16;;;;;;;;;10.00;8.67;;;;;15.84;100.00;102314.13;6363739;22;45376;-94
2022/03/14 09:50:44;;;;;;;;;5.67;5.67;;;;;15.86;100.00;102315.09;6363400;22;45628;-92
2022/03/14 09:53:13;;;;;;;;;9.33;8.00;;;;;15.93;100.00;102300.41;6363237;22;48141;-94
2022/03/14 09:55:41;;;;;;;;;8.00;7.67;;;;;15.95;100.00;102307.59;6362783;22;45335;-95
2022/03/14 09:58:09;;;;;;;;;9.00;7.67;;;;;16.04;100.00;102314.19;6365355;22;45363;-94
2022/03/14 10:00:35;;;;;;;;;8.33;7.00;;;;;16.03;100.00;102312.38;6365155;22;45460;-95
2022/03/14 10:03:02;;;;;;;;;7.67;7.67;;;;;16.03;100.00;102318.56;6366701;22;45422;-93
2022/03/14 10:05:27;;;;;;;;;7.67;3.00;;;;;16.11;100.00;102323.34;6364419;22;45287;-94
2022/03/14 10:07:52;;;;;;;;;8.67;7.67;;;;;16.19;100.00;102317.59;6365001;22;45405;-91
2022/03/14 10:10:18;;;;;;;;;8.67;6.67;;;;;16.26;100.00;102318.78;6363259;22;45329;-92
2022/03/14 10:12:52;;;;;;;;;5.33;5.00;;;;;16.39;100.00;102319.38;6363606;22;48568;-92
2022/03/14 10:15:18;;;;;;;;;6.67;6.00;;;;;16.39;100.00;102324.69;6364116;22;45251;-93
2022/03/14 10:17:43;;;;;;;;;10.67;9.67;;;;;16.44;100.00;102319.59;6363877;22;45763;-92
2022/03/14 10:20:09;;;;;;;;;13.67;9.67;;;;;16.52;100.00;102318.19;6364483;22;45223;-93
2022/03/14 10:22:38;;;;;;;;;7.33;7.33;;;;;16.63;100.00;102321.31;6366037;22;45351;-93
2022/03/14 10:25:10;;;;;;;;;9.00;7.00;;;;;16.66;100.00;102325.88;6365954;22;45268;-92
2022/03/14 10:27:37;;;;;;;;;11.33;10.00;;;;;16.71;100.00;102338.50;6367425;22;45250;-93
2022/03/14 10:30:05;;;;;;;;;11.00;8.67;;;;;16.76;100.00;102341.34;6363781;22;45414;-93
2022/03/14 10:32:32;;;;;;;;;9.67;6.67;;;;;16.80;100.00;102351.25;6365320;22;47459;-91
2022/03/14 10:35:04;;;;;;;;;8.00;5.33;;;;;16.88;100.00;102354.25;6362836;22;45438;-92
2022/03/14 10:37:31;;;;;;;;;10.33;7.67;;;;;16.87;100.00;102352.44;6365833;22;45331;-93
2022/03/14 10:40:04;;;;;;;;;9.00;8.00;;;;;17.00;100.00;102347.69;6363004;22;45608;-93
2022/03/14 10:42:37;;;;;;;;;14.33;10.67;;;;;17.07;100.00;102347.13;6364807;22;46417;-92
2022/03/14 10:45:09;;;;;;;;;10.67;10.67;;;;;17.13;100.00;102343.84;6364839;22;45709;-91
2022/03/14 10:47:34;;;;;;;;;12.67;8.67;;;;;17.12;100.00;102347.31;6363516;22;45293;-92
2022/03/14 10:50:00;;;;;;;;;9.33;5.67;;;;;17.18;100.00;102344.97;6362413;22;45263;-92
2022/03/14 10:52:25;;;;;;;;;9.67;8.33;;;;;17.27;100.00;102340.06;6365624;22;45252;-92
2022/03/14 10:54:51;;;;;;;;;10.00;8.33;;;;;17.34;100.00;102348.31;6365284;22;45452;-92
2022/03/14 10:57:23;;;;;;;;;9.00;9.00;;;;;17.48;100.00;102343.56;6367723;22;45713;-93
2022/03/14 10:59:54;;;;;;;;;10.33;9.33;;;;;17.52;100.00;102340.22;6361552;22;45421;-89
2022/03/14 11:02:22;;;;;;;;;9.00;6.67;;;;;17.48;100.00;102357.75;6360173;22;48907;-88
2022/03/14 11:04:52;;;;;;;;;10.33;9.00;;;;;17.56;100.00;102359.81;6361033;22;45280;-91
2022/03/14 11:07:19;;;;;;;;;9.00;7.00;;;;;17.67;100.00;102357.63;6360763;22;45339;-95
2022/03/14 11:09:49;;;;;;;;;9.67;6.67;;;;;17.75;100.00;102366.81;6362139;22;45818;-91
2022/03/14 11:12:17;;;;;;;;;10.00;8.00;;;;;17.91;100.00;102348.88;6360988;22;47491;-93
2022/03/14 11:14:53;;;;;;;;;9.00;7.33;;;;;18.06;100.00;102360.13;6361760;22;45435;-91
2022/03/14 11:17:24;;;;;;;;;14.33;9.00;;;;;18.09;100.00;102357.56;6361501;22;45505;-91
2022/03/14 11:19:51;;;;;;;;;8.67;8.00;;;;;18.08;100.00;102362.81;6360153;22;45276;-90
2022/03/14 11:22:17;;;;;;;;;6.33;5.00;;;;;18.11;100.00;102352.31;6362773;22;46630;-92
2022/03/14 11:24:47;;;;;;;;;10.67;9.33;;;;;18.24;100.00;102336.88;6362952;22;45293;-90
2022/03/14 11:27:18;;;;;;;;;11.67;6.67;;;;;18.34;100.00;102333.75;6363215;22;45408;-90
2022/03/14 11:29:45;;;;;;;;;5.67;5.33;;;;;18.38;100.00;102338.31;6361178;22;45658;-89
2022/03/14 11:32:11;;;;;;;;;4.00;3.33;;;;;18.47;100.00;102331.53;6361963;22;45442;-89
2022/03/14 11:34:36;;;;;;;;;8.00;8.00;;;;;18.51;100.00;102336.13;6362114;22;45707;-91
2022/03/14 11:37:03;;;;;;;;;12.00;9.00;;;;;18.59;100.00;102334.66;6362106;22;45588;-89
2022/03/14 11:39:28;;;;;;;;;5.33;5.33;;;;;18.62;100.00;102336.53;6362283;22;45422;-90
2022/03/14 11:41:55;;;;;;;;;7.33;6.33;;;;;18.70;100.00;102334.16;6363452;22;47174;-96
2022/03/14 11:44:24;;;;;;;;;8.67;6.00;;;;;18.71;100.00;102331.53;6368768;22;45394;-90
2022/03/14 11:46:51;;;;;;;;;5.33;5.00;;;;;18.74;100.00;102326.34;6371075;22;45345;-90
2022/03/14 11:49:17;;;;;;;;;4.33;4.00;;;;;18.80;100.00;102325.66;6367259;22;45405;-89
2022/03/14 11:51:43;;;;;;;;;8.67;7.33;;;;;18.86;100.00;102320.56;6364413;22;45336;-92
2022/03/14 11:54:11;;;;;;;;;8.33;5.00;;;;;18.93;100.00;102324.38;6361543;22;45648;-92
2022/03/14 11:56:39;;;;;;;;;8.33;4.00;;;;;18.93;100.00;102323.44;6365471;22;45297;-92
2022/03/14 11:59:09;;;;;;;;;6.33;4.67;;;;;19.06;100.00;102316.81;6363270;22;45596;-91
2022/03/14 12:01:46;;;;;;;;;5.33;4.00;;;;;19.00;100.00;102325.47;6362258;22;48125;-91
2022/03/14 12:04:26;;;;;;;;;4.00;4.00;;;;;19.12;100.00;102319.66;6368658;22;45390;-91
2022/03/14 12:06:52;;;;;;;;;4.00;4.00;;;;;19.07;100.00;102326.63;6363657;22;45510;-91
2022/03/14 12:09:24;;;;;;;;;8.33;6.00;;;;;19.25;100.00;102318.38;6366378;22;45286;-92
2022/03/14 12:11:53;;;;;;;;;2.00;2.00;;;;;19.15;100.00;102316.22;6362922;22;46801;-91
2022/03/14 12:14:44;;;;;;;;;2.00;2.00;;;;;19.30;100.00;102303.47;6366211;22;45302;-90
2022/03/14 12:17:12;;;;;;;;;5.33;3.33;;;;;19.37;100.00;102295.69;6367445;22;45500;-91
2022/03/14 12:19:43;;;;;;;;;5.00;3.00;;;;;19.41;100.00;102281.63;6365852;22;45628;-86
2022/03/14 12:22:14;;;;;;;;;5.00;3.00;;;;;19.54;100.00;102278.53;6364531;22;46153;-89
2022/03/14 12:24:39;;;;;;;;;3.67;2.00;;;;;19.54;100.00;102274.94;6363398;22;45233;-89
2022/03/14 12:27:18;;;;;;;;;5.00;4.00;;;;;19.75;100.00;102279.16;6364396;22;45302;-89
2022/03/14 12:29:45;;;;;;;;;5.33;4.00;;;;;19.70;100.00;102283.44;6364297;22;45445;-88
2022/03/14 12:32:29;;;;;;;;;4.67;2.33;;;;;19.87;100.00;102271.53;6360809;22;46532;-89
2022/03/14 12:35:13;;;;;;;;;3.33;3.33;;;;;19.81;100.00;102273.13;6362214;22;45689;-89
2022/03/14 12:37:43;;;;;;;;;3.33;3.33;;;;;19.86;100.00;102266.19;6362852;22;45390;-89
2022/03/14 12:40:35;;;;;;;;;4.33;2.67;;;;;20.07;100.00;102268.59;6366965;22;45370;-88
2022/03/14 12:43:00;;;;;;;;;3.33;2.67;;;;;20.24;100.00;102268.22;6360701;22;48080;-88
2022/03/14 12:45:31;;;;;;;;;5.00;3.67;;;;;21.48;100.00;102259.91;6364374;22;45696;-88
2022/03/14 12:48:02;;;;;;;;;3.00;3.00;;;;;23.60;100.00;102259.59;6364193;22;45352;-88
2022/03/14 12:50:42;;;;;;;;;3.67;2.33;;;;;25.83;100.00;102253.78;6362510;22;45340;-89
2022/03/14 12:53:27;;;;;;;;;4.00;3.00;;;;;27.10;100.00;102251.41;6363144;22;45559;-89
2022/03/14 12:55:54;;;;;;;;;3.00;3.00;;;;;27.66;100.00;102261.25;6361314;22;45375;-90
2022/03/14 12:58:22;;;;;;;;;3.00;3.00;;;;;27.81;100.00;102267.50;6361330;22;45734;-90
2022/03/14 13:00:49;;;;;;;;;3.67;3.00;;;;;27.79;100.00;102269.28;6364092;22;45410;-89
2022/03/14 13:03:19;;;;;;;;;3.00;3.00;;;;;27.86;100.00;102271.09;6363773;22;46122;-88
2022/03/14 13:05:45;;;;;;;;;5.00;3.00;;;;;27.82;100.00;102269.31;6363551;22;45397;-88
2022/03/14 13:08:11;;;;;;;;;5.67;4.00;;;;;27.70;100.00;102278.31;6363634;22;45349;-88
2022/03/14 13:10:40;;;;;;;;;5.67;3.33;;;;;27.55;100.00;102276.53;6362246;22;45409;-89
2022/03/14 13:13:09;;;;;;;;;5.33;2.67;;;;;27.48;100.00;102267.56;6364225;22;45245;-88
2022/03/14 13:15:37;;;;;;;;;2.00;2.00;;;;;27.37;100.00;102269.41;6360898;22;45277;-88
2022/03/14 13:18:19;;;;;;;;;5.00;4.00;;;;;27.41;100.00;102268.47;6364004;22;45345;-88
2022/03/14 13:20:45;;;;;;;;;5.67;3.00;;;;;27.74;100.00;102272.00;6361788;22;45485;-89
2022/03/14 13:23:19;;;;;;;;;6.33;3.00;;;;;28.94;100.00;102271.44;6361022;22;48393;-89
2022/03/14 13:25:50;;;;;;;;;4.33;2.33;;;;;29.33;100.00;102271.09;6363622;22;45560;-89
2022/03/14 13:28:26;;;;;;;;;6.00;4.67;;;;;28.91;100.00;102272.34;6361950;22;45420;-88
2022/03/14 13:30:52;;;;;;;;;4.33;4.00;;;;;28.13;100.00;102278.19;6364079;22;45248;-89
2022/03/14 13:33:17;;;;;;;;;3.33;3.33;;;;;27.53;100.00;102272.94;6361460;22;47178;-89
2022/03/14 13:35:45;;;;;;;;;4.67;3.00;;;;;27.00;100.00;102282.88;6364054;22;45287;-89
2022/03/14 13:38:11;;;;;;;;;4.33;3.00;;;;;26.40;100.00;102275.53;6363907;22;45441;-89
2022/03/14 13:40:44;;;;;;;;;5.33;3.00;;;;;25.99;100.00;102284.34;6362722;22;45534;-89
2022/03/14 13:43:09;;;;;;;;;2.33;2.33;;;;;25.48;100.00;102281.31;6363463;22;45546;-89
2022/03/14 13:45:35;;;;;;;;;2.00;2.00;;;;;25.16;100.00;102282.88;6363298;22;45491;-89
2022/03/14 13:48:00;;;;;;;;;5.00;4.67;;;;;24.86;100.00;102272.75;6364591;22;45349;-89
2022/03/14 13:50:26;;;;;;;;;6.00;3.67;;;;;24.71;100.00;102281.56;6363688;22;48253;-89
2022/03/14 13:52:52;;;;;;;;;4.00;4.00;;;;;24.71;100.00;102277.97;6362158;22;46866;-89
2022/03/14 13:55:17;;;;;;;;;1.00;1.00;;;;;24.82;100.00;102272.69;6361808;22;45812;-90
2022/03/14 13:57:45;;;;;;;;;3.67;2.67;;;;;25.13;100.00;102273.00;6363899;22;45287;-90
2022/03/14 14:00:15;;;;;;;;;3.33;3.00;;;;;25.35;100.00;102272.28;6361885;22;45519;-89
2022/03/14 14:02:41;;;;;;;;;3.00;3.00;;;;;25.56;100.00;102279.59;6364425;22;45437;-89
2022/03/14 14:05:08;;;;;;;;;2.00;2.00;;;;;25.97;100.00;102279.84;6363799;22;45276;-87
2022/03/14 14:07:34;;;;;;;;;4.33;3.00;;;;;26.24;100.00;102280.84;6388308;22;45324;-88
2022/03/14 14:10:08;;;;;;;;;3.00;3.00;;;;;26.84;100.00;102278.34;6364851;22;45331;-88
2022/03/14 14:12:33;;;;;;;;;4.00;1.67;;;;;28.37;100.00;102261.00;6361527;22;45622;-89
2022/03/14 14:15:10;;;;;;;;;5.67;2.00;;;;;30.17;100.00;102274.69;6361938;22;45722;-89
2022/03/14 14:17:38;;;;;;;;;6.00;5.33;;;;;31.61;100.00;102276.06;6360254;22;45601;-88
2022/03/14 14:20:16;;;;;;;;;3.67;3.67;;;;;32.53;100.00;102270.47;6363359;22;45390;-88
2022/03/14 14:22:44;;;;;;;;;4.33;3.00;;;;;32.97;100.00;102273.06;6360294;22;46869;-88
2022/03/14 14:25:12;;;;;;;;;7.33;4.00;;;;;33.38;100.00;102257.50;6361965;22;45582;-87
2022/03/14 14:28:05;;;;;;;;;2.33;2.00;;;;;34.57;100.00;102245.84;6360944;22;45397;-88
2022/03/14 14:30:39;;;;;;;;;6.33;4.67;;;;;36.49;100.00;102238.91;6364724;22;45552;-88
2022/03/14 14:33:10;;;;;;;;;4.00;3.00;;;;;37.54;100.00;102246.22;6363561;22;45551;-88
2022/03/14 14:35:40;;;;;;;;;2.67;2.67;;;;;38.02;100.00;102247.66;6363651;22;45377;-88
2022/03/14 14:38:07;;;;;;;;;3.00;3.00;;;;;38.00;100.00;102244.13;6363645;22;45662;-88
2022/03/14 14:40:41;;;;;;;;;4.00;4.00;;;;;37.85;100.00;102243.88;6364310;22;45401;-88
2022/03/14 14:43:07;;;;;;;;;8.33;4.67;;;;;38.21;100.00;102246.78;6360087;22;48225;-88
2022/03/14 14:45:32;;;;;;;;;5.67;3.00;;;;;38.09;95.65;102237.31;6362959;22;45267;-88
2022/03/14 14:47:58;;;;;;;;;4.00;4.00;;;;;37.07;93.91;102252.88;6363524;22;45345;-88
2022/03/14 14:50:24;;;;;;;;;3.67;3.00;;;;;35.48;89.31;102250.03;6363713;22;45473;-88
2022/03/14 14:52:49;;;;;;;;;3.00;3.00;;;;;33.70;87.22;102243.94;6362944;22;45629;-88
2022/03/14 14:55:15;;;;;;;;;7.00;4.67;;;;;32.24;87.33;102251.22;6362893;22;45529;-89
2022/03/14 14:57:41;;;;;;;;;5.00;4.00;;;;;30.88;86.06;102249.28;6362794;22;45684;-88
2022/03/14 15:00:07;;;;;;;;;2.33;2.00;;;;;29.62;84.98;102247.34;6363707;22;45426;-89
2022/03/14 15:02:32;;;;;;;;;3.33;3.33;;;;;28.33;86.34;102232.19;6360982;22;47395;-88
2022/03/14 15:04:57;;;;;;;;;5.50;3.00;;;;;27.34;87.25;102240.66;6362844;22;45241;-88
2022/03/14 15:07:23;;;;;;;;;3.33;2.00;;;;;26.52;86.92;102245.97;6363338;22;45304;-91
2022/03/14 15:09:49;;;;;;;;;3.33;3.33;;;;;25.65;86.41;102244.69;6361923;22;45289;-91
2022/03/14 15:12:14;;;;;;;;;2.00;2.00;;;;;24.92;86.50;102249.53;6361071;22;47211;-90
2022/03/14 15:14:40;;;;;;;;;2.67;2.67;;;;;24.32;87.90;102249.81;6363843;22;45626;-90
2022/03/14 15:17:05;;;;;;;;;2.00;2.00;;;;;23.81;86.88;102254.50;6361518;22;45285;-90
2022/03/14 15:19:31;;;;;;;;;1.33;1.00;;;;;23.37;87.15;102257.44;6364614;22;45173;-91
2022/03/14 15:21:56;;;;;;;;;3.00;2.00;;;;;22.98;87.19;102259.47;6363670;22;45580;-90
2022/03/14 15:24:23;;;;;;;;;3.00;3.00;;;;;22.62;88.58;102261.44;6363776;22;45384;-90
2022/03/14 15:26:48;;;;;;;;;3.33;2.00;;;;;22.30;88.86;102255.50;6364143;22;45315;-90
2022/03/14 15:29:14;;;;;;;;;2.67;2.33;;;;;22.01;90.78;102246.88;6365419;22;45344;-90
2022/03/14 15:31:39;;;;;;;;;3.00;3.00;;;;;21.75;91.13;102246.28;6363079;22;47280;-90
2022/03/14 15:34:05;;;;;;;;;3.33;1.00;;;;;21.53;91.49;102256.50;6365209;22;45360;-91
2022/03/14 15:36:30;;;;;;;;;2.67;2.00;;;;;21.30;92.17;102250.59;6366048;22;45351;-89
2022/03/14 15:38:57;;;;;;;;;2.00;2.00;;;;;21.15;92.67;102253.78;6362536;22;45375;-90
2022/03/14 15:41:22;;;;;;;;;2.00;2.00;;;;;20.91;93.24;102255.81;6365582;22;45556;-90
2022/03/14 15:43:48;;;;;;;;;2.67;1.00;;;;;20.78;95.04;102246.59;6361610;22;45408;-90